createdAt,value
2023-04-07T00:00:43.633Z,11.30
2023-04-07T00:03:11.409Z,14.80
2023-04-07T00:05:38.203Z,14.77
2023-04-07T00:08:04.980Z,14.37
2023-04-07T00:10:32.165Z,14.73
2023-04-07T00:12:58.886Z,13.30
2023-04-07T00:15:25.636Z,11.10
2023-04-07T00:17:52.534Z,12.07
2023-04-07T00:20:19.549Z,10.77
2023-04-07T00:22:46.351Z,9.97
2023-04-07T00:25:13.061Z,11.77
2023-04-07T00:27:39.821Z,9.83
2023-04-07T00:30:07.659Z,11.53
2023-04-07T00:32:35.361Z,9.47
2023-04-07T00:35:03.234Z,11.33
2023-04-07T00:37:29.948Z,11.60
2023-04-07T00:39:57.994Z,11.13
2023-04-07T00:42:24.776Z,12.20
2023-04-07T00:44:51.501Z,12.73
2023-04-07T00:47:18.246Z,12.00
2023-04-07T00:49:45.257Z,11.10
2023-04-07T00:52:12.621Z,11.37
2023-04-07T00:54:42.191Z,8.27
2023-04-07T00:57:09.261Z,12.47
2023-04-07T00:59:36.361Z,10.40
2023-04-07T01:02:11.109Z,13.97
2023-04-07T01:04:47.785Z,9.97
2023-04-07T01:07:51.281Z,10.40
2023-04-07T01:10:27.064Z,9.93
2023-04-07T01:13:14.061Z,12.43
2023-04-07T01:15:42.452Z,11.20
2023-04-07T01:18:15.979Z,12.27
2023-04-07T01:20:46.114Z,14.73
2023-04-07T01:23:23.326Z,13.87
2023-04-07T01:26:07.626Z,12.20
2023-04-07T01:28:49.820Z,12.33
2023-04-07T01:31:17.412Z,8.13
2023-04-07T01:33:49.727Z,7.97
2023-04-07T01:36:18.136Z,11.57
2023-04-07T01:38:46.247Z,10.53
2023-04-07T01:41:15.999Z,11.10
2023-04-07T01:43:44.538Z,13.37
2023-04-07T01:46:11.941Z,12.83
2023-04-07T01:48:40.369Z,12.57
2023-04-07T01:51:08.482Z,11.53
2023-04-07T01:53:37.889Z,13.53
2023-04-07T01:56:05.793Z,10.13
2023-04-07T01:58:32.988Z,13.60
2023-04-07T02:01:00.097Z,11.33
2023-04-07T02:03:38.919Z,12.50
2023-04-07T02:06:08.430Z,11.40
2023-04-07T02:08:36.943Z,13.23
2023-04-07T02:11:05.594Z,10.43
2023-04-07T02:13:34.273Z,12.07
2023-04-07T02:16:02.636Z,11.20
2023-04-07T02:18:32.278Z,12.03
2023-04-07T02:21:01.376Z,10.33
2023-04-07T02:23:28.335Z,13.20
2023-04-07T02:25:58.300Z,11.60
2023-04-07T02:28:25.039Z,10.13
2023-04-07T02:30:51.817Z,12.67
2023-04-07T02:33:18.561Z,12.83
2023-04-07T02:35:45.402Z,10.50
2023-04-07T02:38:12.131Z,12.13
2023-04-07T02:40:38.900Z,12.53
2023-04-07T02:43:05.655Z,13.17
2023-04-07T02:45:32.434Z,11.40
2023-04-07T02:47:59.209Z,12.47
2023-04-07T02:50:26.231Z,12.73
2023-04-07T02:52:52.933Z,11.97
2023-04-07T02:55:19.769Z,11.37
2023-04-07T02:57:46.450Z,11.00
2023-04-07T03:00:14.467Z,12.53
2023-04-07T03:02:41.441Z,10.20
2023-04-07T03:05:08.551Z,10.23
2023-04-07T03:07:35.271Z,10.73
2023-04-07T03:10:02.041Z,9.87
2023-04-07T03:12:28.780Z,13.33
2023-04-07T03:14:55.672Z,11.87
2023-04-07T03:17:22.466Z,14.30
2023-04-07T03:19:49.303Z,11.77
2023-04-07T03:22:16.224Z,11.90
2023-04-07T03:24:42.900Z,13.23
2023-04-07T03:27:09.602Z,10.77
2023-04-07T03:29:36.413Z,14.57
2023-04-07T03:32:03.151Z,13.53
2023-04-07T03:34:29.853Z,12.43
2023-04-07T03:36:56.539Z,10.90
2023-04-07T03:39:23.321Z,12.60
2023-04-07T03:41:50.147Z,13.77
2023-04-07T03:44:16.865Z,15.07
2023-04-07T03:46:45.491Z,11.13
2023-04-07T03:49:12.251Z,11.27
2023-04-07T03:51:38.973Z,12.97
2023-04-07T03:54:05.802Z,10.70
2023-04-07T03:56:32.707Z,12.53
2023-04-07T03:58:59.434Z,14.63
2023-04-07T04:01:26.381Z,12.30
2023-04-07T04:03:53.403Z,12.30
2023-04-07T04:06:22.543Z,17.10
2023-04-07T04:08:49.237Z,16.83
2023-04-07T04:11:16.265Z,13.27
2023-04-07T04:13:42.996Z,12.70
2023-04-07T04:16:10.115Z,13.33
2023-04-07T04:18:36.979Z,11.63
2023-04-07T04:21:04.003Z,11.97
2023-04-07T04:23:30.808Z,11.37
2023-04-07T04:26:00.152Z,11.87
2023-04-07T04:28:27.039Z,10.43
2023-04-07T04:30:53.778Z,10.90
2023-04-07T04:33:20.850Z,10.20
2023-04-07T04:35:47.587Z,11.70
2023-04-07T04:38:14.328Z,10.97
2023-04-07T04:40:41.117Z,10.67
2023-04-07T04:43:09.500Z,12.40
2023-04-07T04:45:36.324Z,11.13
2023-04-07T04:48:03.061Z,10.40
2023-04-07T04:50:29.813Z,11.27
2023-04-07T04:52:56.586Z,12.63
2023-04-07T04:55:23.302Z,11.53
2023-04-07T04:57:49.988Z,12.23
2023-04-07T05:00:16.970Z,11.33
2023-04-07T05:02:43.980Z,11.43
2023-04-07T05:05:11.238Z,11.40
2023-04-07T05:07:38.639Z,15.13
2023-04-07T05:10:06.728Z,11.70
2023-04-07T05:12:33.651Z,12.47
2023-04-07T05:15:00.721Z,10.87
2023-04-07T05:17:27.562Z,13.90
2023-04-07T05:19:54.384Z,15.13
2023-04-07T05:22:21.509Z,12.40
2023-04-07T05:24:48.251Z,11.93
2023-04-07T05:27:15.051Z,12.80
2023-04-07T05:29:41.954Z,14.70
2023-04-07T05:32:08.946Z,13.27
2023-04-07T05:34:36.088Z,16.50
2023-04-07T05:37:02.792Z,14.60
2023-04-07T05:39:29.469Z,16.70
2023-04-07T05:41:57.329Z,14.30
2023-04-07T05:44:24.040Z,14.03
2023-04-07T05:46:51.131Z,13.83
2023-04-07T05:49:20.252Z,12.67
2023-04-07T05:51:48.764Z,12.90
2023-04-07T05:54:16.014Z,11.87
2023-04-07T05:56:42.764Z,11.40
2023-04-07T05:59:10.023Z,12.10
2023-04-07T06:01:36.787Z,12.63
2023-04-07T06:04:04.356Z,11.80
2023-04-07T06:06:31.458Z,12.37
2023-04-07T06:08:58.376Z,11.10
2023-04-07T06:11:26.475Z,13.63
2023-04-07T06:13:53.334Z,11.63
2023-04-07T06:16:20.109Z,13.33
2023-04-07T06:18:47.406Z,11.27
2023-04-07T06:21:14.216Z,12.83
2023-04-07T06:23:41.104Z,10.83
2023-04-07T06:26:12.236Z,13.03
2023-04-07T06:28:39.620Z,10.90
2023-04-07T06:31:07.234Z,10.10
2023-04-07T06:33:34.100Z,11.17
2023-04-07T06:36:00.830Z,11.83
2023-04-07T06:38:27.684Z,10.90
2023-04-07T06:40:54.421Z,11.70
2023-04-07T06:43:21.277Z,12.03
2023-04-07T06:45:48.051Z,11.13
2023-04-07T06:48:14.862Z,11.43
2023-04-07T06:50:41.715Z,10.70
2023-04-07T06:53:08.546Z,11.23
2023-04-07T06:55:35.601Z,11.93
2023-04-07T06:58:02.475Z,10.70
2023-04-07T07:00:30.953Z,11.30
2023-04-07T07:02:58.049Z,11.63
2023-04-07T07:05:25.677Z,12.80
2023-04-07T07:07:52.379Z,12.70
2023-04-07T07:10:22.810Z,11.17
2023-04-07T07:12:50.855Z,12.07
2023-04-07T07:15:18.259Z,11.13
2023-04-07T07:17:45.209Z,12.90
2023-04-07T07:20:12.196Z,12.03
2023-04-07T07:22:39.978Z,12.37
2023-04-07T07:25:07.194Z,11.50
2023-04-07T07:27:33.970Z,12.03
2023-04-07T07:30:01.245Z,13.57
2023-04-07T07:32:29.010Z,10.67
2023-04-07T07:34:55.775Z,10.50
2023-04-07T07:37:22.898Z,12.87
2023-04-07T07:39:49.694Z,10.75
2023-04-07T07:42:16.583Z,12.05
2023-04-07T07:44:43.309Z,10.30
2023-04-07T07:47:10.573Z,10.55
2023-04-07T07:49:37.652Z,10.90
2023-04-07T07:52:04.482Z,10.68
2023-04-07T07:54:31.230Z,11.15
2023-04-07T07:56:58.107Z,14.10
2023-04-07T07:59:24.883Z,12.00
2023-04-07T08:01:51.664Z,11.63
2023-04-07T08:04:18.579Z,10.95
2023-04-07T08:06:47.133Z,11.10
2023-04-07T08:09:16.815Z,11.27
2023-04-07T08:11:43.786Z,10.52
2023-04-07T08:14:10.568Z,11.13
2023-04-07T08:16:38.438Z,12.20
2023-04-07T08:19:05.515Z,12.07
2023-04-07T08:21:32.356Z,11.32
2023-04-07T08:23:59.194Z,10.40
2023-04-07T08:26:25.993Z,12.02
2023-04-07T08:28:53.536Z,12.10
2023-04-07T08:31:20.385Z,11.88
2023-04-07T08:33:47.502Z,12.15
2023-04-07T08:36:14.568Z,11.93
2023-04-07T08:38:41.381Z,12.05
2023-04-07T08:41:13.641Z,11.30
2023-04-07T08:43:42.528Z,11.80
2023-04-07T08:46:10.769Z,11.85
2023-04-07T08:48:38.782Z,12.05
2023-04-07T08:51:08.507Z,11.63
2023-04-07T08:53:43.622Z,12.20
2023-04-07T08:56:13.352Z,12.18
2023-04-07T08:58:40.738Z,12.02
2023-04-07T09:01:08.395Z,11.98
2023-04-07T09:03:35.526Z,12.68
2023-04-07T09:06:02.662Z,11.90
2023-04-07T09:08:29.548Z,11.02
2023-04-07T09:10:57.778Z,11.35
2023-04-07T09:13:25.591Z,11.02
2023-04-07T09:15:52.331Z,11.18
2023-04-07T09:18:19.719Z,10.57
2023-04-07T09:21:01.482Z,11.00
2023-04-07T09:23:29.393Z,11.18
2023-04-07T09:25:56.220Z,14.15
2023-04-07T09:28:23.118Z,11.32
2023-04-07T09:30:54.622Z,10.55
2023-04-07T09:33:30.770Z,10.98
2023-04-07T09:35:58.533Z,11.20
2023-04-07T09:38:37.718Z,9.95
2023-04-07T09:41:14.332Z,11.10
2023-04-07T09:43:44.871Z,11.65
2023-04-07T09:46:16.486Z,10.57
2023-04-07T09:48:44.827Z,10.43
2023-04-07T09:51:17.218Z,11.10
2023-04-07T09:53:51.622Z,12.18
2023-04-07T09:56:22.240Z,10.32
2023-04-07T09:58:53.303Z,11.85
2023-04-07T10:01:22.984Z,10.40
2023-04-07T10:03:51.177Z,11.38
2023-04-07T10:06:19.429Z,10.95
2023-04-07T10:08:46.404Z,10.32
2023-04-07T10:11:13.454Z,10.85
2023-04-07T10:13:41.342Z,11.10
2023-04-07T10:16:08.476Z,11.13
2023-04-07T10:18:36.934Z,12.57
2023-04-07T10:21:06.776Z,12.95
2023-04-07T10:23:42.199Z,12.18
2023-04-07T10:26:09.855Z,12.27
2023-04-07T10:28:41.268Z,12.55
2023-04-07T10:31:08.444Z,11.60
2023-04-07T10:33:51.758Z,13.25
2023-04-07T10:36:20.835Z,12.32
2023-04-07T10:39:09.052Z,12.70
2023-04-07T10:41:37.437Z,11.05
2023-04-07T10:44:28.072Z,12.30
2023-04-07T10:47:06.376Z,12.65
2023-04-07T10:49:36.739Z,11.85
2023-04-07T10:52:12.472Z,13.02
2023-04-07T10:54:44.403Z,12.40
2023-04-07T10:57:15.876Z,11.35
2023-04-07T11:00:11.522Z,11.60
2023-04-07T11:02:39.983Z,11.75
2023-04-07T11:05:07.497Z,12.18
2023-04-07T11:07:44.921Z,13.13
2023-04-07T11:10:13.378Z,11.13
2023-04-07T11:12:40.422Z,11.30
2023-04-07T11:15:23.019Z,12.20
2023-04-07T11:18:28.076Z,13.50
2023-04-07T11:20:58.619Z,12.25
2023-04-07T11:23:27.252Z,10.88
2023-04-07T11:26:02.052Z,13.52
2023-04-07T11:28:29.797Z,11.40
2023-04-07T11:30:58.271Z,11.32
2023-04-07T11:33:31.424Z,12.38
2023-04-07T11:36:00.538Z,11.48
2023-04-07T11:38:29.126Z,11.38
2023-04-07T11:40:56.992Z,12.00
2023-04-07T11:43:26.527Z,12.15
2023-04-07T11:46:07.658Z,11.93
2023-04-07T11:48:38.517Z,14.48
2023-04-07T11:51:05.782Z,11.25
2023-04-07T11:53:34.810Z,13.13
2023-04-07T11:56:07.654Z,11.90
2023-04-07T11:58:34.830Z,11.75
2023-04-07T12:01:05.897Z,11.98
2023-04-07T12:03:35.050Z,12.40
2023-04-07T12:06:02.927Z,10.63
2023-04-07T12:08:43.760Z,11.10
2023-04-07T12:11:10.985Z,12.02
2023-04-07T12:13:38.625Z,11.57
2023-04-07T12:16:05.715Z,10.23
2023-04-07T12:18:32.686Z,12.27
2023-04-07T12:20:59.483Z,10.93
2023-04-07T12:23:26.652Z,11.73
2023-04-07T12:25:53.468Z,11.38
2023-04-07T12:28:20.452Z,12.80
2023-04-07T12:30:47.212Z,11.73
2023-04-07T12:33:13.927Z,10.85
2023-04-07T12:35:40.717Z,11.95
2023-04-07T12:38:08.403Z,11.45
2023-04-07T12:40:35.951Z,12.30
2023-04-07T12:43:03.697Z,11.32
2023-04-07T12:45:31.274Z,10.07
2023-04-07T12:47:59.696Z,12.40
2023-04-07T12:50:26.763Z,11.77
2023-04-07T12:52:54.699Z,12.57
2023-04-07T12:55:21.540Z,12.52
2023-04-07T12:57:48.639Z,11.65
2023-04-07T13:00:15.680Z,12.57
2023-04-07T13:02:43.693Z,13.63
2023-04-07T13:05:12.843Z,11.10
2023-04-07T13:07:39.589Z,11.45
2023-04-07T13:10:08.362Z,12.13
2023-04-07T13:12:35.554Z,10.95
2023-04-07T13:15:02.914Z,11.13
2023-04-07T13:17:30.141Z,11.38
2023-04-07T13:19:57.076Z,11.25
2023-04-07T13:22:24.715Z,11.23
2023-04-07T13:24:51.661Z,12.98
2023-04-07T13:27:18.404Z,12.07
2023-04-07T13:29:45.232Z,11.75
2023-04-07T13:32:15.506Z,11.45
2023-04-07T13:34:42.510Z,11.80
2023-04-07T13:37:09.433Z,12.30
2023-04-07T13:39:36.223Z,12.55
2023-04-07T13:42:03.374Z,11.32
2023-04-07T13:44:30.256Z,10.60
2023-04-07T13:46:58.194Z,10.88
2023-04-07T13:49:25.292Z,11.15
2023-04-07T13:51:52.092Z,10.57
2023-04-07T13:54:18.897Z,10.35
2023-04-07T13:56:45.661Z,11.20
2023-04-07T13:59:12.460Z,11.90
2023-04-07T14:01:39.463Z,11.15
2023-04-07T14:04:06.902Z,11.40
2023-04-07T14:06:34.095Z,12.10
2023-04-07T14:09:00.935Z,10.43
2023-04-07T14:11:27.753Z,10.43
2023-04-07T14:13:57.074Z,10.65
2023-04-07T14:16:25.105Z,10.35
2023-04-07T14:18:51.949Z,11.38
2023-04-07T14:21:20.035Z,10.38
2023-04-07T14:23:46.787Z,11.38
2023-04-07T14:26:13.710Z,10.23
2023-04-07T14:28:40.992Z,10.65
2023-04-07T14:31:14.287Z,11.70
2023-04-07T14:33:41.774Z,12.07
2023-04-07T14:36:08.602Z,11.55
2023-04-07T14:38:35.546Z,11.43
2023-04-07T14:43:33.532Z,11.95
2023-04-07T14:46:00.444Z,10.88
2023-04-07T14:48:27.349Z,10.70
2023-04-07T14:51:08.189Z,11.40
2023-04-07T14:53:36.979Z,13.27
2023-04-07T14:56:07.019Z,10.90
2023-04-07T14:58:33.960Z,10.50
2023-04-07T15:01:00.710Z,11.57
2023-04-07T15:03:27.668Z,11.10
2023-04-07T15:05:54.666Z,9.70
2023-04-07T15:08:21.386Z,12.13
2023-04-07T15:10:48.545Z,10.60
2023-04-07T15:13:15.328Z,10.77
2023-04-07T15:15:44.326Z,10.98
2023-04-07T15:18:11.150Z,9.65
2023-04-07T15:20:37.885Z,12.15
2023-04-07T15:23:04.606Z,12.38
2023-04-07T15:25:31.365Z,9.88
2023-04-07T15:27:58.133Z,8.35
2023-04-07T15:30:24.948Z,11.70
2023-04-07T15:33:02.883Z,9.77
2023-04-07T15:35:30.406Z,8.75
2023-04-07T15:37:57.226Z,9.20
2023-04-07T15:40:23.962Z,8.38
2023-04-07T15:42:50.739Z,9.65
2023-04-07T15:45:17.541Z,8.93
2023-04-07T15:47:44.273Z,8.25
2023-04-07T15:50:11.396Z,10.02
2023-04-07T15:52:38.162Z,9.52
2023-04-07T15:55:05.831Z,8.15
2023-04-07T15:57:32.538Z,8.73
2023-04-07T15:59:59.366Z,8.45
2023-04-07T16:02:26.349Z,8.77
2023-04-07T16:04:54.199Z,11.00
2023-04-07T16:07:21.114Z,9.10
2023-04-07T16:09:47.917Z,10.10
2023-04-07T16:12:14.678Z,8.70
2023-04-07T16:14:41.436Z,7.50
2023-04-07T16:17:08.182Z,8.40
2023-04-07T16:19:34.884Z,9.02
2023-04-07T16:22:01.621Z,8.52
2023-04-07T16:24:28.526Z,8.10
2023-04-07T16:26:55.866Z,7.50
2023-04-07T16:29:22.657Z,8.23
2023-04-07T16:31:49.570Z,9.57
2023-04-07T16:34:16.385Z,9.33
2023-04-07T16:36:43.187Z,7.77
2023-04-07T16:39:09.967Z,9.27
2023-04-07T16:41:36.690Z,8.17
2023-04-07T16:44:03.365Z,7.67
2023-04-07T16:46:30.568Z,7.00
2023-04-07T16:48:57.417Z,6.60
2023-04-07T16:51:24.837Z,7.77
2023-04-07T16:53:51.556Z,6.83
2023-04-07T16:56:20.276Z,9.33
2023-04-07T16:58:48.358Z,6.90
2023-04-07T17:01:15.835Z,9.03
2023-04-07T17:03:42.856Z,10.03
2023-04-07T17:06:09.829Z,10.97
2023-04-07T17:08:38.283Z,11.80
2023-04-07T17:11:08.751Z,9.47
2023-04-07T17:13:36.032Z,9.63
2023-04-07T17:16:04.076Z,11.73
2023-04-07T17:18:32.707Z,10.93
2023-04-07T17:20:59.434Z,18.90
2023-04-07T17:23:28.233Z,21.13
2023-04-07T17:25:55.090Z,20.13
2023-04-07T17:28:21.872Z,18.90
2023-04-07T17:30:48.744Z,15.30
2023-04-07T17:33:15.538Z,17.67
2023-04-07T17:35:42.445Z,19.37
2023-04-07T17:38:09.283Z,21.43
2023-04-07T17:40:36.007Z,39.03
2023-04-07T17:43:02.747Z,45.60
2023-04-07T17:45:29.564Z,39.70
2023-04-07T17:47:56.430Z,27.87
2023-04-07T17:50:23.487Z,19.17
2023-04-07T17:52:51.414Z,13.47
2023-04-07T17:55:18.573Z,11.80
2023-04-07T17:57:45.743Z,8.57
2023-04-07T18:00:12.787Z,8.20
2023-04-07T18:02:40.565Z,9.53
2023-04-07T18:05:08.211Z,11.77
2023-04-07T18:07:35.161Z,8.77
2023-04-07T18:10:03.280Z,8.43
2023-04-07T18:12:32.022Z,11.23
2023-04-07T18:14:58.860Z,8.70
2023-04-07T18:17:25.667Z,7.77
2023-04-07T18:19:52.461Z,8.43
2023-04-07T18:22:19.285Z,9.90
2023-04-07T18:24:46.051Z,7.53
2023-04-07T18:27:15.018Z,7.50
2023-04-07T18:29:41.755Z,7.57
2023-04-07T18:32:08.500Z,8.13
2023-04-07T18:34:35.417Z,9.20
2023-04-07T18:37:02.149Z,10.17
2023-04-07T18:39:28.874Z,9.27
2023-04-07T18:41:57.429Z,11.60
2023-04-07T18:44:26.116Z,12.17
2023-04-07T18:46:53.756Z,9.70
2023-04-07T18:49:20.622Z,10.00
2023-04-07T18:51:48.273Z,13.53
2023-04-07T18:54:15.087Z,18.40
2023-04-07T18:56:41.819Z,17.90
2023-04-07T18:59:08.560Z,16.73
2023-04-07T19:01:35.723Z,12.33
2023-04-07T19:04:02.980Z,12.93
2023-04-07T19:06:31.909Z,14.67
2023-04-07T19:08:59.424Z,15.17
2023-04-07T19:11:27.027Z,15.27
2023-04-07T19:13:53.960Z,23.23
2023-04-07T19:16:21.792Z,26.70
2023-04-07T19:18:48.639Z,30.60
2023-04-07T19:21:15.441Z,28.10
2023-04-07T19:23:42.374Z,26.30
2023-04-07T19:26:13.088Z,19.63
2023-04-07T19:28:41.256Z,32.87
2023-04-07T19:31:08.917Z,37.83
2023-04-07T19:33:35.728Z,35.93
2023-04-07T19:36:03.619Z,24.50
2023-04-07T19:38:30.432Z,20.33
2023-04-07T19:40:57.130Z,18.17
2023-04-07T19:43:23.936Z,17.80
2023-04-07T19:45:50.679Z,20.00
2023-04-07T19:48:17.728Z,15.67
2023-04-07T19:50:48.164Z,15.33
2023-04-07T19:53:18.063Z,17.03
2023-04-07T19:55:49.080Z,13.53
2023-04-07T19:58:21.086Z,17.20
2023-04-07T20:00:50.683Z,15.53
2023-04-07T20:03:18.143Z,18.97
2023-04-07T20:05:45.366Z,15.27
2023-04-07T20:08:12.209Z,15.20
2023-04-07T20:10:38.967Z,13.30
2023-04-07T20:13:06.485Z,11.97
2023-04-07T20:15:33.315Z,11.67
2023-04-07T20:18:00.329Z,11.07
2023-04-07T20:20:27.135Z,13.27
2023-04-07T20:22:53.840Z,13.97
2023-04-07T20:25:20.793Z,14.93
2023-04-07T20:27:49.972Z,11.77
2023-04-07T20:30:16.920Z,18.67
2023-04-07T20:32:46.993Z,9.60
2023-04-07T20:35:13.947Z,18.37
2023-04-07T20:37:40.841Z,21.20
2023-04-07T20:40:08.329Z,22.63
2023-04-07T20:42:35.729Z,23.00
2023-04-07T20:45:04.675Z,20.80
2023-04-07T20:47:32.276Z,20.83
2023-04-07T20:49:59.044Z,19.90
2023-04-07T20:52:27.304Z,18.70
2023-04-07T20:54:54.126Z,19.38
2023-04-07T20:57:20.837Z,19.57
2023-04-07T20:59:47.563Z,14.73
2023-04-07T21:02:14.464Z,17.33
2023-04-07T21:04:41.549Z,16.27
2023-04-07T21:07:08.299Z,16.63
2023-04-07T21:09:35.063Z,16.87
2023-04-07T21:12:03.510Z,24.40
2023-04-07T21:14:31.922Z,22.53
2023-04-07T21:16:59.252Z,21.37
2023-04-07T21:19:26.148Z,29.00
2023-04-07T21:21:52.896Z,24.57
2023-04-07T21:24:21.612Z,24.43
2023-04-07T21:26:48.366Z,25.47
2023-04-07T21:29:15.379Z,25.67
2023-04-07T21:31:42.844Z,29.17
2023-04-07T21:34:09.739Z,26.43
2023-04-07T21:36:37.602Z,22.90
2023-04-07T21:39:04.605Z,16.90
2023-04-07T21:41:31.299Z,17.27
2023-04-07T21:43:58.034Z,15.57
2023-04-07T21:46:24.851Z,14.07
2023-04-07T21:48:52.032Z,14.70
2023-04-07T21:51:19.176Z,22.67
2023-04-07T21:53:46.268Z,18.03
2023-04-07T21:56:13.654Z,18.80
2023-04-07T21:58:41.912Z,13.10
2023-04-07T22:01:08.710Z,16.83
2023-04-07T22:03:35.612Z,15.93
2023-04-07T22:06:02.513Z,10.77
2023-04-07T22:08:29.201Z,15.13
2023-04-07T22:10:56.950Z,12.30
2023-04-07T22:13:23.736Z,12.87
2023-04-07T22:15:50.949Z,12.90
2023-04-07T22:18:18.180Z,20.30
2023-04-07T22:20:45.982Z,21.87
2023-04-07T22:23:12.708Z,16.50
2023-04-07T22:25:39.613Z,14.43
2023-04-07T22:28:06.556Z,12.47
2023-04-07T22:30:33.366Z,10.47
2023-04-07T22:33:00.546Z,8.57
2023-04-07T22:35:27.350Z,9.53
2023-04-07T22:37:54.172Z,12.20
2023-04-07T22:40:21.036Z,13.17
2023-04-07T22:42:47.785Z,10.20
2023-04-07T22:45:14.528Z,10.67
2023-04-07T22:47:41.349Z,12.77
2023-04-07T22:50:08.390Z,11.93
2023-04-07T22:52:35.330Z,26.37
2023-04-07T22:55:02.147Z,19.97
2023-04-07T22:57:28.972Z,13.37
2023-04-07T22:59:55.720Z,12.27
2023-04-07T23:02:22.960Z,12.30
2023-04-07T23:04:51.031Z,13.97
2023-04-07T23:07:17.716Z,11.10
2023-04-07T23:09:44.457Z,11.83
2023-04-07T23:12:11.133Z,15.03
2023-04-07T23:14:37.901Z,16.97
2023-04-07T23:17:04.605Z,16.97
2023-04-07T23:19:31.344Z,18.43
2023-04-07T23:21:58.033Z,15.23
2023-04-07T23:24:24.718Z,16.70
2023-04-07T23:26:51.400Z,14.27
2023-04-07T23:29:18.289Z,16.33
2023-04-07T23:31:45.104Z,17.10
2023-04-07T23:34:11.860Z,15.77
2023-04-07T23:36:39.632Z,15.40
2023-04-07T23:39:06.391Z,13.97
2023-04-07T23:41:33.214Z,16.00
2023-04-07T23:43:59.960Z,15.50
2023-04-07T23:46:26.698Z,15.50
2023-04-07T23:48:53.639Z,11.67
2023-04-07T23:51:20.342Z,12.30
2023-04-07T23:53:47.098Z,9.00
2023-04-07T23:56:13.836Z,9.53
2023-04-07T23:58:40.867Z,9.60
